Time;durP1;ratioP1;P1;durP2;ratioP2;P2;SDS_P1;SDS_P2;PMS_P1;PMS_P2;Temp;Humidity;BMP_temperature;BMP_pressure;BME280_temperature;BME280_humidity;BME280_pressure;Samples;Min_cycle;Max_cycle;Signal;HPM_P1;HPM_P2
2021/11/18 00:01:41;;;;;;;24.60;15.17;;;;;;;;;;5038883;28;20653;-60
2021/11/18 00:04:07;;;;;;;24.87;16.20;;;;;;;;;;5039266;28;20459;-60
2021/11/18 00:06:32;;;;;;;21.87;14.47;;;;;;;;;;5038470;28;20455;-59
2021/11/18 00:08:57;;;;;;;23.77;15.07;;;;;;;;;;5038897;28;20473;-60
2021/11/18 00:11:23;;;;;;;25.13;16.07;;;;;;;;;;5038669;28;20221;-60
2021/11/18 00:13:52;;;;;;;25.60;16.50;;;;;;;;;;5038681;28;20286;-60
2021/11/18 00:16:18;;;;;;;33.20;15.90;;;;;;;;;;5038629;28;20233;-61
2021/11/18 00:18:44;;;;;;;29.07;15.17;;;;;;;;;;5038396;28;20801;-59
2021/11/18 00:21:14;;;;;;;24.50;14.30;;;;;;;;;;5038460;28;20468;-59
2021/11/18 00:23:46;;;;;;;24.33;15.40;;;;;;;;;;5038882;28;20466;-59
2021/11/18 00:26:11;;;;;;;22.43;14.50;;;;;;;;;;5038502;28;20528;-61
2021/11/18 00:28:37;;;;;;;30.97;16.70;;;;;;;;;;5038957;28;20450;-60
2021/11/18 00:31:04;;;;;;;32.17;17.23;;;;;;;;;;5038159;28;20225;-59
2021/11/18 00:33:30;;;;;;;29.07;16.90;;;;;;;;;;5038714;28;20224;-60
2021/11/18 00:35:55;;;;;;;27.30;16.30;;;;;;;;;;5038047;28;20465;-60
2021/11/18 00:38:21;;;;;;;30.23;14.40;;;;;;;;;;5037522;28;20659;-60
2021/11/18 00:40:49;;;;;;;26.90;16.00;;;;;;;;;;5038912;28;20228;-59
2021/11/18 00:43:15;;;;;;;27.17;16.77;;;;;;;;;;5038682;28;20300;-60
2021/11/18 00:45:40;;;;;;;23.63;14.33;;;;;;;;;;5038829;28;20455;-60
2021/11/18 00:48:07;;;;;;;27.30;16.20;;;;;;;;;;5038878;28;20881;-60
2021/11/18 00:50:39;;;;;;;24.50;13.80;;;;;;;;;;5038358;28;20236;-60
2021/11/18 00:53:04;;;;;;;27.53;15.60;;;;;;;;;;5038535;28;20478;-59
2021/11/18 00:55:29;;;;;;;24.73;14.07;;;;;;;;;;5038261;28;20439;-60
2021/11/18 00:57:55;;;;;;;25.43;14.60;;;;;;;;;;5038508;28;20210;-60
2021/11/18 01:00:24;;;;;;;29.27;14.70;;;;;;;;;;5038180;28;20224;-59
2021/11/18 01:02:49;;;;;;;28.50;17.47;;;;;;;;;;5038569;28;20217;-59
2021/11/18 01:05:15;;;;;;;29.77;14.53;;;;;;;;;;5037992;28;20467;-60
2021/11/18 01:07:41;;;;;;;24.67;14.10;;;;;;;;;;5038557;28;20225;-60
2021/11/18 01:10:09;;;;;;;23.00;15.40;;;;;;;;;;5037533;28;20670;-59
2021/11/18 01:12:34;;;;;;;25.63;15.77;;;;;;;;;;5036942;28;20517;-59
2021/11/18 01:15:00;;;;;;;23.37;14.43;;;;;;;;;;5037395;28;20776;-59
2021/11/18 01:17:25;;;;;;;24.90;15.40;;;;;;;;;;5038127;28;20227;-60
2021/11/18 01:19:50;;;;;;;29.40;13.97;;;;;;;;;;5038988;28;20236;-59
2021/11/18 01:22:16;;;;;;;27.10;15.57;;;;;;;;;;5037748;28;20223;-60
2021/11/18 01:24:43;;;;;;;30.07;16.33;;;;;;;;;;5040220;28;20224;-59
2021/11/18 01:27:09;;;;;;;27.73;14.97;;;;;;;;;;5042211;28;20458;-60
2021/11/18 01:29:34;;;;;;;22.60;14.60;;;;;;;;;;5041551;28;20900;-61
2021/11/18 01:31:59;;;;;;;21.50;14.20;;;;;;;;;;5041698;28;20236;-59
2021/11/18 01:34:26;;;;;;;23.00;15.13;;;;;;;;;;5041210;28;20236;-59
2021/11/18 01:36:51;;;;;;;24.13;14.60;;;;;;;;;;5041530;28;20228;-59
2021/11/18 01:39:16;;;;;;;27.57;14.67;;;;;;;;;;5040900;28;20466;-60
2021/11/18 01:41:42;;;;;;;21.33;14.20;;;;;;;;;;5041198;28;20225;-59
2021/11/18 01:44:30;;;;;;;21.27;15.23;;;;;;;;;;5041509;28;20222;-59
2021/11/18 01:46:55;;;;;;;23.20;14.90;;;;;;;;;;5041318;28;20465;-60
2021/11/18 01:49:21;;;;;;;20.83;12.87;;;;;;;;;;5040888;28;20488;-60
2021/11/18 01:51:50;;;;;;;23.43;13.93;;;;;;;;;;5041191;28;20225;-60
2021/11/18 01:54:17;;;;;;;23.57;12.67;;;;;;;;;;5040627;28;20226;-59
2021/11/18 01:56:42;;;;;;;22.40;13.20;;;;;;;;;;5041167;28;20480;-59
2021/11/18 01:59:15;;;;;;;28.80;14.40;;;;;;;;;;5040880;28;20471;-59
2021/11/18 02:01:42;;;;;;;24.63;14.17;;;;;;;;;;5041126;28;20236;-59
2021/11/18 02:04:16;;;;;;;28.53;14.33;;;;;;;;;;5040455;28;20499;-60
2021/11/18 02:06:46;;;;;;;26.47;13.20;;;;;;;;;;5041208;28;20456;-60
2021/11/18 02:09:15;;;;;;;20.17;12.80;;;;;;;;;;5040236;28;20480;-60
2021/11/18 02:11:49;;;;;;;24.90;13.63;;;;;;;;;;5040527;28;20461;-59
2021/11/18 02:14:18;;;;;;;24.67;13.70;;;;;;;;;;5040534;28;20487;-59
2021/11/18 02:16:45;;;;;;;25.33;13.80;;;;;;;;;;5041081;28;20461;-60
2021/11/18 02:19:10;;;;;;;26.37;12.80;;;;;;;;;;5040527;28;20697;-60
2021/11/18 02:21:38;;;;;;;24.67;15.83;;;;;;;;;;5040529;28;20806;-59
2021/11/18 02:24:06;;;;;;;22.87;13.27;;;;;;;;;;5040697;28;20233;-60
2021/11/18 02:26:31;;;;;;;20.80;12.50;;;;;;;;;;5040337;28;20457;-59
2021/11/18 02:29:02;;;;;;;23.33;13.97;;;;;;;;;;5040278;28;20459;-59
2021/11/18 02:31:58;;;;;;;23.83;13.53;;;;;;;;;;5040230;28;20228;-59
2021/11/18 02:34:57;;;;;;;25.13;14.63;;;;;;;;;;5040263;28;20486;-60
2021/11/18 02:37:23;;;;;;;23.17;13.10;;;;;;;;;;5039157;28;20951;-59
2021/11/18 02:39:48;;;;;;;28.30;13.07;;;;;;;;;;5039449;28;20474;-59
2021/11/18 02:42:15;;;;;;;24.10;12.73;;;;;;;;;;5039934;28;20213;-60
2021/11/18 02:44:42;;;;;;;19.23;12.67;;;;;;;;;;5039350;28;20257;-60
2021/11/18 02:47:12;;;;;;;17.90;12.30;;;;;;;;;;5039958;28;20826;-60
2021/11/18 02:49:41;;;;;;;22.60;13.43;;;;;;;;;;5040495;28;20456;-59
2021/11/18 02:52:08;;;;;;;29.67;15.10;;;;;;;;;;5039744;28;20434;-60
2021/11/18 02:54:33;;;;;;;22.17;13.10;;;;;;;;;;5040025;28;20472;-59
2021/11/18 02:56:58;;;;;;;29.47;14.00;;;;;;;;;;5040348;28;20475;-59
2021/11/18 02:59:23;;;;;;;23.27;14.30;;;;;;;;;;5039460;28;20226;-60
2021/11/18 03:01:49;;;;;;;25.30;12.90;;;;;;;;;;5039865;28;20416;-59
2021/11/18 03:04:14;;;;;;;23.07;13.93;;;;;;;;;;5039945;28;20221;-60
2021/11/18 03:06:41;;;;;;;28.30;13.60;;;;;;;;;;5040255;28;20290;-59
2021/11/18 03:09:06;;;;;;;22.30;14.60;;;;;;;;;;5039568;28;20315;-60
2021/11/18 03:11:33;;;;;;;26.83;13.93;;;;;;;;;;5039522;28;20468;-60
2021/11/18 03:13:58;;;;;;;30.07;17.17;;;;;;;;;;5040195;28;20236;-59
2021/11/18 03:16:24;;;;;;;26.23;13.30;;;;;;;;;;5039103;28;20460;-59
2021/11/18 03:18:49;;;;;;;22.30;14.80;;;;;;;;;;5040012;28;20220;-59
2021/11/18 03:21:17;;;;;;;25.30;14.27;;;;;;;;;;5039219;28;20237;-60
2021/11/18 03:23:43;;;;;;;27.20;14.60;;;;;;;;;;5039487;28;20296;-60
2021/11/18 03:26:09;;;;;;;30.00;12.73;;;;;;;;;;5038306;28;20502;-60
2021/11/18 03:28:34;;;;;;;24.53;14.30;;;;;;;;;;5039752;28;20220;-59
2021/11/18 03:31:02;;;;;;;26.93;14.60;;;;;;;;;;5039666;28;20461;-59
2021/11/18 03:33:30;;;;;;;24.43;13.90;;;;;;;;;;5039155;28;20598;-60
2021/11/18 03:35:56;;;;;;;21.63;12.20;;;;;;;;;;5038826;28;20464;-59
2021/11/18 03:38:24;;;;;;;26.03;13.90;;;;;;;;;;5039305;28;20455;-59
2021/11/18 03:40:50;;;;;;;27.33;12.17;;;;;;;;;;5039664;28;20491;-59
2021/11/18 03:43:18;;;;;;;26.40;13.97;;;;;;;;;;5039127;28;20468;-59
2021/11/18 03:45:43;;;;;;;24.70;14.07;;;;;;;;;;5038601;28;20461;-59
2021/11/18 03:48:08;;;;;;;22.40;13.17;;;;;;;;;;5038998;28;20482;-60
2021/11/18 03:50:35;;;;;;;24.00;13.13;;;;;;;;;;5039232;28;20222;-59
2021/11/18 03:53:00;;;;;;;27.60;12.67;;;;;;;;;;5039197;28;20256;-59
2021/11/18 03:55:25;;;;;;;23.57;14.03;;;;;;;;;;5038783;28;20463;-59
2021/11/18 03:57:53;;;;;;;20.30;13.67;;;;;;;;;;5038906;28;20306;-59
2021/11/18 04:00:23;;;;;;;28.33;12.20;;;;;;;;;;5038664;28;20234;-59
2021/11/18 04:02:48;;;;;;;27.00;11.80;;;;;;;;;;5039413;28;20486;-59
2021/11/18 04:05:14;;;;;;;27.90;13.33;;;;;;;;;;5038911;28;20459;-59
2021/11/18 04:07:40;;;;;;;27.93;14.23;;;;;;;;;;5039273;28;20215;-59
2021/11/18 04:10:08;;;;;;;22.43;11.73;;;;;;;;;;5039229;28;20447;-60
2021/11/18 04:12:33;;;;;;;28.70;14.00;;;;;;;;;;5038883;28;20433;-59
2021/11/18 04:14:58;;;;;;;19.17;11.83;;;;;;;;;;5039083;28;20456;-59
2021/11/18 04:17:24;;;;;;;28.37;12.60;;;;;;;;;;5038096;28;20213;-60
2021/11/18 04:19:49;;;;;;;24.20;13.07;;;;;;;;;;5039004;28;20286;-60
2021/11/18 04:22:15;;;;;;;25.30;14.20;;;;;;;;;;5038358;28;20585;-59
2021/11/18 04:24:44;;;;;;;26.90;13.17;;;;;;;;;;5038464;28;20224;-59
2021/11/18 04:27:10;;;;;;;26.33;12.50;;;;;;;;;;5038744;28;20220;-59
2021/11/18 04:29:35;;;;;;;21.43;12.07;;;;;;;;;;5038757;28;20535;-60
2021/11/18 04:32:10;;;;;;;22.60;13.03;;;;;;;;;;5038517;28;20524;-60
2021/11/18 04:34:35;;;;;;;31.90;11.97;;;;;;;;;;5038357;28;20248;-60
2021/11/18 04:37:01;;;;;;;24.00;12.50;;;;;;;;;;5038467;28;20473;-60
2021/11/18 04:39:26;;;;;;;22.23;12.50;;;;;;;;;;5038429;28;20217;-60
2021/11/18 04:41:52;;;;;;;28.10;12.10;;;;;;;;;;5038616;28;20225;-59
2021/11/18 04:44:19;;;;;;;22.73;11.97;;;;;;;;;;5038360;28;20224;-59
2021/11/18 04:46:45;;;;;;;21.37;12.77;;;;;;;;;;5039154;28;20215;-59
2021/11/18 04:49:10;;;;;;;23.67;12.37;;;;;;;;;;5038747;28;20507;-60
2021/11/18 04:51:35;;;;;;;18.10;12.33;;;;;;;;;;5036164;28;20259;-60
2021/11/18 04:54:01;;;;;;;25.37;12.17;;;;;;;;;;5038403;28;20674;-60
2021/11/18 04:56:28;;;;;;;19.43;11.20;;;;;;;;;;5039599;28;20564;-60
2021/11/18 04:58:55;;;;;;;30.00;14.30;;;;;;;;;;5044837;28;20481;-60
2021/11/18 05:01:21;;;;;;;27.50;13.40;;;;;;;;;;5035721;28;20505;-59
2021/11/18 05:03:46;;;;;;;19.10;11.40;;;;;;;;;;5048784;28;20977;-59
2021/11/18 05:06:13;;;;;;;23.03;12.10;;;;;;;;;;5055097;28;20227;-59
2021/11/18 05:08:38;;;;;;;21.23;10.70;;;;;;;;;;5034199;28;20313;-60
2021/11/18 05:11:04;;;;;;;20.83;11.70;;;;;;;;;;5054586;28;20934;-59
2021/11/18 05:13:30;;;;;;;22.57;11.47;;;;;;;;;;5055151;28;20241;-59
2021/11/18 05:15:58;;;;;;;18.60;11.07;;;;;;;;;;5034599;28;20951;-60
2021/11/18 05:18:24;;;;;;;18.30;11.53;;;;;;;;;;5047408;28;20543;-59
2021/11/18 05:20:50;;;;;;;22.93;10.70;;;;;;;;;;5054500;28;20476;-59
2021/11/18 05:23:16;;;;;;;20.13;11.90;;;;;;;;;;5054244;28;20462;-61
2021/11/18 05:25:42;;;;;;;19.73;10.43;;;;;;;;;;5041834;28;20227;-60
2021/11/18 05:28:07;;;;;;;29.20;12.13;;;;;;;;;;5049075;28;20474;-60
2021/11/18 05:30:33;;;;;;;18.87;10.33;;;;;;;;;;5055380;28;20225;-59
2021/11/18 05:33:02;;;;;;;24.87;11.10;;;;;;;;;;5051771;28;20602;-59
2021/11/18 05:35:28;;;;;;;17.30;10.30;;;;;;;;;;5047482;28;20483;-59
2021/11/18 05:37:54;;;;;;;20.13;10.70;;;;;;;;;;5049577;28;20475;-59
2021/11/18 05:40:21;;;;;;;23.43;10.67;;;;;;;;;;5054080;28;20836;-60
2021/11/18 05:42:47;;;;;;;21.90;12.17;;;;;;;;;;5052626;28;20283;-59
2021/11/18 05:45:15;;;;;;;26.53;12.60;;;;;;;;;;5047540;28;20494;-59
2021/11/18 05:47:41;;;;;;;18.83;12.53;;;;;;;;;;5051195;28;20456;-59
2021/11/18 05:50:08;;;;;;;15.10;10.07;;;;;;;;;;5053832;28;20469;-60
2021/11/18 05:52:33;;;;;;;22.30;11.50;;;;;;;;;;5035132;28;20308;-60
2021/11/18 05:54:58;;;;;;;18.93;10.73;;;;;;;;;;5048205;28;20861;-60
2021/11/18 05:57:24;;;;;;;18.70;11.27;;;;;;;;;;5047757;28;20224;-61
2021/11/18 05:59:50;;;;;;;21.77;12.13;;;;;;;;;;5057547;28;20227;-60
2021/11/18 06:02:16;;;;;;;26.50;13.10;;;;;;;;;;5035055;28;20228;-59
2021/11/18 06:04:41;;;;;;;21.20;12.10;;;;;;;;;;5047186;28;20830;-59
2021/11/18 06:07:06;;;;;;;16.43;10.40;;;;;;;;;;5053962;28;20443;-59
2021/11/18 06:09:32;;;;;;;23.33;10.60;;;;;;;;;;5052491;28;20256;-60
2021/11/18 06:11:57;;;;;;;20.37;9.53;;;;;;;;;;5044981;28;20229;-60
2021/11/18 06:14:22;;;;;;;18.93;10.30;;;;;;;;;;5048568;28;20327;-60
2021/11/18 06:16:48;;;;;;;21.17;11.53;;;;;;;;;;5053859;28;20240;-59
2021/11/18 06:19:14;;;;;;;27.53;12.40;;;;;;;;;;5051479;28;20223;-59
2021/11/18 06:21:43;;;;;;;27.10;11.40;;;;;;;;;;5046540;28;20221;-60
2021/11/18 06:24:10;;;;;;;23.80;10.13;;;;;;;;;;5048814;28;20611;-60
2021/11/18 06:26:36;;;;;;;18.57;9.10;;;;;;;;;;5056048;28;20477;-59
2021/11/18 06:29:04;;;;;;;20.10;10.20;;;;;;;;;;5047950;28;20547;-60
2021/11/18 06:31:29;;;;;;;18.50;9.77;;;;;;;;;;5054655;28;20461;-60
2021/11/18 06:33:54;;;;;;;17.63;10.27;;;;;;;;;;5050191;28;20961;-60
2021/11/18 06:36:20;;;;;;;17.47;9.63;;;;;;;;;;5046001;28;20240;-61
2021/11/18 06:38:47;;;;;;;16.70;9.00;;;;;;;;;;5050337;28;20537;-59
2021/11/18 06:41:15;;;;;;;14.43;8.30;;;;;;;;;;5052794;28;20232;-60
2021/11/18 06:43:40;;;;;;;16.73;9.03;;;;;;;;;;5048463;28;20445;-59
2021/11/18 06:46:06;;;;;;;14.57;9.60;;;;;;;;;;5046589;28;20464;-59
2021/11/18 06:48:32;;;;;;;20.70;10.27;;;;;;;;;;5051283;28;20336;-58
2021/11/18 06:50:59;;;;;;;24.60;11.70;;;;;;;;;;5052604;28;20247;-60
2021/11/18 06:53:26;;;;;;;18.07;9.53;;;;;;;;;;5032508;28;20277;-60
2021/11/18 06:55:52;;;;;;;19.10;9.07;;;;;;;;;;5047723;28;20845;-60
2021/11/18 06:58:17;;;;;;;18.07;10.03;;;;;;;;;;5047468;28;20476;-61
2021/11/18 07:00:42;;;;;;;22.93;9.93;;;;;;;;;;5045490;28;20544;-61
2021/11/18 07:03:10;;;;;;;13.90;8.80;;;;;;;;;;5052067;28;20280;-59
2021/11/18 07:05:36;;;;;;;17.60;8.80;;;;;;;;;;5052717;28;20217;-59
2021/11/18 07:08:02;;;;;;;20.23;10.20;;;;;;;;;;5047069;28;20456;-59
2021/11/18 07:10:27;;;;;;;20.80;9.43;;;;;;;;;;5045519;28;20509;-60
2021/11/18 07:12:54;;;;;;;17.17;8.73;;;;;;;;;;5051700;28;20475;-60
2021/11/18 07:15:20;;;;;;;22.40;10.33;;;;;;;;;;5037639;28;20295;-59
2021/11/18 07:17:56;;;;;;;25.80;14.10;;;;;;;;;;5035196;28;20486;-60
2021/11/18 07:20:25;;;;;;;25.60;15.53;;;;;;;;;;5034748;28;20458;-60
2021/11/18 07:22:51;;;;;;;24.80;13.37;;;;;;;;;;5033652;28;20484;-60
2021/11/18 07:25:23;;;;;;;18.07;10.77;;;;;;;;;;5051240;28;20502;-60
2021/11/18 07:27:49;;;;;;;20.10;9.77;;;;;;;;;;5051658;28;20437;-59
2021/11/18 07:30:18;;;;;;;16.37;9.70;;;;;;;;;;5047339;28;20478;-61
2021/11/18 07:32:44;;;;;;;15.23;8.93;;;;;;;;;;5043316;28;20505;-59
2021/11/18 07:35:11;;;;;;;15.20;8.73;;;;;;;;;;5051382;28;20490;-60
2021/11/18 07:37:37;;;;;;;15.53;10.77;;;;;;;;;;5052128;28;20240;-60
2021/11/18 07:40:07;;;;;;;17.47;9.67;;;;;;;;;;5045458;28;20457;-60
2021/11/18 07:42:32;;;;;;;14.80;8.43;;;;;;;;;;5044822;28;20251;-60
2021/11/18 07:44:59;;;;;;;25.63;10.50;;;;;;;;;;5052082;28;20476;-60
2021/11/18 07:47:24;;;;;;;19.13;10.93;;;;;;;;;;5034267;28;20655;-60
2021/11/18 07:49:49;;;;;;;17.83;10.60;;;;;;;;;;5045244;28;20466;-60
2021/11/18 07:52:15;;;;;;;21.60;10.60;;;;;;;;;;5044708;28;20670;-59
2021/11/18 07:54:40;;;;;;;16.67;8.60;;;;;;;;;;5051364;28;20260;-60
2021/11/18 07:57:05;;;;;;;14.83;8.90;;;;;;;;;;5051264;28;20225;-59
2021/11/18 07:59:30;;;;;;;21.70;8.20;;;;;;;;;;5044637;28;20232;-60
2021/11/18 08:01:56;;;;;;;20.60;7.90;;;;;;;;;;5046530;28;20411;-60
2021/11/18 08:04:21;;;;;;;22.00;9.53;;;;;;;;;;5051635;28;20279;-60
2021/11/18 08:06:46;;;;;;;16.83;8.30;;;;;;;;;;5050036;28;20730;-60
2021/11/18 08:09:12;;;;;;;22.53;8.80;;;;;;;;;;5044949;28;20236;-60
2021/11/18 08:11:44;;;;;;;21.27;10.07;;;;;;;;;;5046369;28;20222;-60
2021/11/18 08:14:10;;;;;;;23.50;8.53;;;;;;;;;;5051615;28;20326;-60
2021/11/18 08:16:35;;;;;;;20.93;11.97;;;;;;;;;;5050598;28;20466;-60
2021/11/18 08:19:02;;;;;;;19.50;9.73;;;;;;;;;;5039814;28;20438;-59
2021/11/18 08:21:27;;;;;;;18.37;9.10;;;;;;;;;;5051031;28;20679;-59
2021/11/18 08:23:53;;;;;;;14.93;7.63;;;;;;;;;;5051209;28;20461;-60
2021/11/18 08:26:20;;;;;;;14.00;8.90;;;;;;;;;;5039462;28;20224;-60
2021/11/18 08:28:45;;;;;;;16.43;9.97;;;;;;;;;;5051687;28;20254;-61
2021/11/18 08:31:13;;;;;;;23.67;9.63;;;;;;;;;;5044523;28;20468;-60
2021/11/18 08:33:38;;;;;;;15.70;9.07;;;;;;;;;;5045448;28;20606;-60
2021/11/18 08:36:05;;;;;;;20.33;8.73;;;;;;;;;;5054747;28;20546;-60
2021/11/18 08:38:30;;;;;;;23.03;11.00;;;;;;;;;;5054544;28;20472;-61
2021/11/18 08:41:00;;;;;;;19.53;8.87;;;;;;;;;;5048964;28;20505;-60
2021/11/18 08:43:25;;;;;;;16.70;9.60;;;;;;;;;;5048311;28;20553;-60
2021/11/18 08:45:51;;;;;;;17.43;8.80;;;;;;;;;;5055057;28;20470;-60
2021/11/18 08:48:17;;;;;;;16.60;8.43;;;;;;;;;;5055580;28;20233;-59
2021/11/18 08:50:45;;;;;;;15.27;10.10;;;;;;;;;;5046680;28;20261;-60
2021/11/18 08:53:11;;;;;;;17.00;10.50;;;;;;;;;;5060568;28;20226;-60
2021/11/18 08:55:38;;;;;;;19.57;8.87;;;;;;;;;;5038316;28;20949;-59
2021/11/18 08:58:05;;;;;;;17.63;10.60;;;;;;;;;;5054189;28;20478;-60
2021/11/18 09:00:39;;;;;;;15.43;8.90;;;;;;;;;;5048474;28;20475;-60
2021/11/18 09:03:05;;;;;;;17.83;10.00;;;;;;;;;;5047574;28;20892;-60
2021/11/18 09:05:31;;;;;;;29.67;11.07;;;;;;;;;;5055018;28;20456;-59
2021/11/18 09:07:57;;;;;;;24.70;10.00;;;;;;;;;;5054376;28;20749;-59
2021/11/18 09:10:24;;;;;;;19.83;11.00;;;;;;;;;;5034071;28;20476;-61
2021/11/18 09:12:49;;;;;;;25.93;11.23;;;;;;;;;;5047236;28;20468;-60
2021/11/18 09:15:18;;;;;;;15.43;9.97;;;;;;;;;;5054602;28;20492;-59
2021/11/18 09:17:44;;;;;;;25.93;11.83;;;;;;;;;;5052434;28;20573;-60
2021/11/18 09:20:12;;;;;;;22.03;11.53;;;;;;;;;;5046738;28;20450;-59
2021/11/18 09:22:38;;;;;;;24.03;10.60;;;;;;;;;;5048374;28;20286;-60
2021/11/18 09:25:09;;;;;;;20.53;11.53;;;;;;;;;;5053850;28;20435;-59
2021/11/18 09:27:38;;;;;;;23.30;9.63;;;;;;;;;;5053752;28;20556;-60
2021/11/18 09:30:08;;;;;;;20.27;10.73;;;;;;;;;;5046627;28;20470;-59
2021/11/18 09:32:33;;;;;;;22.80;11.57;;;;;;;;;;5046831;28;20857;-60
2021/11/18 09:35:00;;;;;;;27.77;11.77;;;;;;;;;;5053251;28;20483;-60
2021/11/18 09:37:26;;;;;;;22.70;11.67;;;;;;;;;;5053859;28;20670;-60
2021/11/18 09:39:52;;;;;;;29.27;12.40;;;;;;;;;;5047301;28;20525;-59
2021/11/18 09:42:22;;;;;;;28.03;13.83;;;;;;;;;;5047444;28;20218;-59
2021/11/18 09:45:00;;;;;;;21.80;10.40;;;;;;;;;;5051712;28;20876;-60
2021/11/18 09:47:54;;;;;;;22.20;10.30;;;;;;;;;;5053222;28;20473;-60
2021/11/18 09:50:32;;;;;;;24.03;12.13;;;;;;;;;;5053986;28;20469;-60
2021/11/18 09:53:00;;;;;;;24.20;12.30;;;;;;;;;;5036748;28;20917;-60
2021/11/18 09:55:41;;;;;;;19.97;10.77;;;;;;;;;;5046991;28;20745;-59
2021/11/18 09:58:32;;;;;;;21.80;12.73;;;;;;;;;;5048426;28;20459;-59
2021/11/18 10:01:12;;;;;;;23.23;12.07;;;;;;;;;;5034733;28;20505;-61
2021/11/18 10:03:56;;;;;;;18.20;10.30;;;;;;;;;;5045810;28;20468;-61
2021/11/18 10:06:27;;;;;;;17.30;11.00;;;;;;;;;;5047075;28;20439;-61
2021/11/18 10:09:12;;;;;;;21.40;10.90;;;;;;;;;;5053272;28;20466;-61
2021/11/18 10:11:51;;;;;;;21.10;10.33;;;;;;;;;;5053189;28;20471;-60
2021/11/18 10:14:39;;;;;;;35.03;11.67;;;;;;;;;;5049846;28;20471;-60
2021/11/18 10:17:10;;;;;;;21.73;10.83;;;;;;;;;;5046303;28;20519;-60
2021/11/18 10:19:41;;;;;;;26.17;10.00;;;;;;;;;;5045234;28;21393;-60
2021/11/18 10:22:10;;;;;;;24.67;11.20;;;;;;;;;;5051977;28;20474;-61
2021/11/18 10:24:38;;;;;;;16.67;9.97;;;;;;;;;;5052907;28;20467;-60
2021/11/18 10:27:16;;;;;;;28.77;10.60;;;;;;;;;;5048425;28;20439;-60
2021/11/18 10:30:19;;;;;;;19.50;9.90;;;;;;;;;;5044119;28;23168;-60
2021/11/18 10:32:53;;;;;;;19.67;11.20;;;;;;;;;;5046216;28;20476;-60
2021/11/18 10:35:29;;;;;;;22.90;10.87;;;;;;;;;;5050532;28;20904;-60
2021/11/18 10:38:18;;;;;;;28.50;10.97;;;;;;;;;;5053325;28;20464;-60
2021/11/18 10:41:03;;;;;;;19.50;10.33;;;;;;;;;;5052309;28;20504;-60
2021/11/18 10:43:35;;;;;;;23.40;11.57;;;;;;;;;;5046586;28;20521;-60
2021/11/18 10:46:21;;;;;;;20.70;11.23;;;;;;;;;;5045607;28;20462;-60
2021/11/18 10:49:04;;;;;;;25.33;13.90;;;;;;;;;;5046508;28;20481;-60
2021/11/18 10:51:51;;;;;;;23.93;13.67;;;;;;;;;;5052170;28;20442;-60
2021/11/18 10:54:19;;;;;;;19.83;11.80;;;;;;;;;;5035295;28;20476;-61
2021/11/18 10:56:56;;;;;;;29.63;12.73;;;;;;;;;;5047309;28;20455;-60
2021/11/18 10:59:43;;;;;;;26.97;14.10;;;;;;;;;;5044434;28;20432;-62
2021/11/18 11:02:24;;;;;;;27.67;13.43;;;;;;;;;;5046447;28;20464;-59
2021/11/18 11:04:56;;;;;;;23.93;13.20;;;;;;;;;;5035008;28;20447;-61
2021/11/18 11:07:35;;;;;;;27.03;12.57;;;;;;;;;;5044746;28;20801;-60
2021/11/18 11:10:00;;;;;;;21.80;12.97;;;;;;;;;;5047441;28;20482;-59
2021/11/18 11:12:35;;;;;;;24.00;12.47;;;;;;;;;;5051179;28;20443;-60
2021/11/18 11:15:28;;;;;;;18.17;11.33;;;;;;;;;;5050217;28;20224;-60
2021/11/18 11:18:01;;;;;;;22.90;10.30;;;;;;;;;;5034187;28;20441;-59
2021/11/18 11:20:52;;;;;;;16.57;10.63;;;;;;;;;;5032559;28;20460;-60
2021/11/18 11:23:52;;;;;;;18.63;10.30;;;;;;;;;;5044237;28;20849;-59
2021/11/18 11:26:46;;;;;;;16.67;9.07;;;;;;;;;;5042730;28;20426;-62
2021/11/18 11:29:50;;;;;;;27.47;9.60;;;;;;;;;;5045249;28;20478;-60
2021/11/18 11:32:22;;;;;;;15.70;9.70;;;;;;;;;;5038438;28;20475;-60
2021/11/18 11:34:57;;;;;;;22.67;10.60;;;;;;;;;;5044300;28;20890;-60
2021/11/18 11:38:00;;;;;;;19.60;9.70;;;;;;;;;;5044753;28;20441;-60
2021/11/18 11:40:43;;;;;;;14.67;9.00;;;;;;;;;;5037674;28;20509;-59
2021/11/18 11:43:31;;;;;;;25.97;11.93;;;;;;;;;;5043646;28;20479;-60
2021/11/18 11:46:06;;;;;;;21.13;9.90;;;;;;;;;;5044005;28;20439;-60
2021/11/18 11:48:52;;;;;;;15.57;9.40;;;;;;;;;;5048429;28;20433;-60
2021/11/18 11:51:49;;;;;;;24.37;9.67;;;;;;;;;;5051285;28;20911;-60
2021/11/18 11:54:52;;;;;;;17.03;8.83;;;;;;;;;;5050638;28;20430;-61
2021/11/18 11:57:47;;;;;;;13.63;8.87;;;;;;;;;;5050508;28;20541;-60
2021/11/18 12:00:48;;;;;;;16.60;9.30;;;;;;;;;;5037612;28;20471;-60
2021/11/18 12:03:29;;;;;;;19.90;8.40;;;;;;;;;;5034280;28;20485;-60
2021/11/18 12:06:06;;;;;;;20.73;9.17;;;;;;;;;;5042603;28;20814;-60
2021/11/18 12:09:02;;;;;;;24.83;10.80;;;;;;;;;;5043771;28;20806;-61
2021/11/18 12:11:43;;;;;;;22.27;11.07;;;;;;;;;;5029697;28;20919;-59
2021/11/18 12:14:32;;;;;;;19.07;9.87;;;;;;;;;;5042430;28;20478;-62
2021/11/18 12:17:07;;;;;;;20.80;10.17;;;;;;;;;;5044228;28;20465;-60
2021/11/18 12:19:43;;;;;;;17.50;10.00;;;;;;;;;;5042078;28;20498;-59
2021/11/18 12:22:32;;;;;;;22.23;10.60;;;;;;;;;;5047629;28;20488;-59
2021/11/18 12:25:28;;;;;;;17.87;10.90;;;;;;;;;;5049648;28;20431;-60
2021/11/18 12:28:03;;;;;;;17.97;9.17;;;;;;;;;;5049459;28;20468;-61
2021/11/18 12:30:31;;;;;;;22.30;11.60;;;;;;;;;;5046563;28;20524;-60
2021/11/18 12:33:08;;;;;;;21.90;9.87;;;;;;;;;;5043710;28;20455;-60
2021/11/18 12:35:33;;;;;;;18.83;9.53;;;;;;;;;;5046836;28;20447;-60
2021/11/18 12:38:24;;;;;;;25.50;10.60;;;;;;;;;;5050566;28;20776;-61
2021/11/18 12:41:07;;;;;;;18.63;9.60;;;;;;;;;;5044812;28;20232;-61
2021/11/18 12:43:53;;;;;;;17.57;9.70;;;;;;;;;;5046162;28;20448;-60
2021/11/18 12:46:31;;;;;;;24.30;11.20;;;;;;;;;;5043355;28;20449;-60
2021/11/18 12:49:00;;;;;;;15.53;8.80;;;;;;;;;;5043066;28;20455;-58
2021/11/18 12:51:35;;;;;;;19.70;9.70;;;;;;;;;;5049076;28;20446;-60
2021/11/18 12:54:10;;;;;;;26.27;10.80;;;;;;;;;;5050479;28;20453;-60
2021/11/18 12:56:50;;;;;;;22.70;10.30;;;;;;;;;;5047466;28;20483;-59
2021/11/18 12:59:43;;;;;;;20.30;9.33;;;;;;;;;;5042889;28;20467;-59
2021/11/18 13:02:11;;;;;;;18.70;10.77;;;;;;;;;;5037435;28;20538;-59
2021/11/18 13:04:49;;;;;;;22.07;10.67;;;;;;;;;;5031472;28;20435;-60
2021/11/18 13:07:44;;;;;;;17.17;9.90;;;;;;;;;;5030064;28;20485;-59
2021/11/18 13:10:15;;;;;;;20.83;10.93;;;;;;;;;;5045281;28;20518;-59
2021/11/18 13:12:41;;;;;;;15.80;9.60;;;;;;;;;;5050201;28;20515;-60
2021/11/18 13:15:11;;;;;;;20.30;10.20;;;;;;;;;;5047788;28;20864;-59
2021/11/18 13:17:44;;;;;;;24.03;9.83;;;;;;;;;;5041862;28;20223;-60
2021/11/18 13:20:53;;;;;;;21.40;12.40;;;;;;;;;;5043420;28;20447;-59
2021/11/18 13:23:38;;;;;;;22.50;9.40;;;;;;;;;;5040977;28;20438;-59
2021/11/18 13:26:07;;;;;;;14.70;9.33;;;;;;;;;;5036982;28;20471;-59
2021/11/18 13:28:57;;;;;;;20.77;10.00;;;;;;;;;;5045731;28;20460;-61
2021/11/18 13:31:48;;;;;;;15.73;8.60;;;;;;;;;;5047374;28;20457;-60
2021/11/18 13:34:36;;;;;;;20.57;9.37;;;;;;;;;;5035119;28;20528;-60
2021/11/18 13:37:10;;;;;;;19.67;9.20;;;;;;;;;;5046078;28;20478;-59
2021/11/18 13:39:52;;;;;;;22.87;10.40;;;;;;;;;;5046953;28;20523;-60
2021/11/18 13:42:31;;;;;;;21.20;10.30;;;;;;;;;;5038177;28;20457;-60
2021/11/18 13:45:17;;;;;;;15.33;8.93;;;;;;;;;;5058416;28;20786;-60
2021/11/18 13:48:00;;;;;;;15.77;8.70;;;;;;;;;;5057130;28;20507;-61
2021/11/18 13:50:32;;;;;;;16.27;10.27;;;;;;;;;;5058503;28;20460;-60
2021/11/18 13:53:11;;;;;;;17.30;9.47;;;;;;;;;;5056873;28;20447;-60
2021/11/18 13:55:44;;;;;;;21.40;11.63;;;;;;;;;;5057354;28;20434;-60
2021/11/18 13:58:30;;;;;;;19.47;8.17;;;;;;;;;;5059009;28;20508;-61
2021/11/18 14:00:57;;;;;;;19.80;9.83;;;;;;;;;;5059782;28;20475;-60
2021/11/18 14:03:27;;;;;;;17.67;9.30;;;;;;;;;;5060030;28;20534;-60
2021/11/18 14:05:55;;;;;;;19.47;9.27;;;;;;;;;;5059404;28;20462;-60
2021/11/18 14:08:24;;;;;;;22.17;9.77;;;;;;;;;;5058514;28;20422;-60
2021/11/18 14:10:54;;;;;;;16.17;8.70;;;;;;;;;;5059534;28;20532;-60
2021/11/18 14:13:45;;;;;;;18.53;10.00;;;;;;;;;;5059853;28;20531;-60
2021/11/18 14:16:49;;;;;;;20.20;10.40;;;;;;;;;;5059549;28;20494;-60
2021/11/18 14:19:26;;;;;;;23.23;10.43;;;;;;;;;;5018006;28;20437;-60
2021/11/18 14:22:10;;;;;;;17.47;8.87;;;;;;;;;;5017305;28;20481;-60
2021/11/18 14:24:38;;;;;;;18.73;9.60;;;;;;;;;;5045117;28;20433;-60
2021/11/18 14:27:07;;;;;;;14.47;8.40;;;;;;;;;;5059404;28;20508;-61
2021/11/18 14:30:04;;;;;;;14.40;9.00;;;;;;;;;;5059395;28;20454;-60
2021/11/18 14:32:55;;;;;;;17.10;9.10;;;;;;;;;;5057815;28;20468;-60
2021/11/18 14:35:28;;;;;;;17.60;8.70;;;;;;;;;;5057482;28;20471;-60
2021/11/18 14:37:56;;;;;;;20.47;9.00;;;;;;;;;;5057992;28;20780;-60
2021/11/18 14:40:26;;;;;;;16.47;8.97;;;;;;;;;;5058332;28;20543;-61
2021/11/18 14:43:12;;;;;;;24.90;8.67;;;;;;;;;;5057675;28;20539;-61
2021/11/18 14:45:39;;;;;;;16.60;8.50;;;;;;;;;;5058293;28;20428;-61